Piper Inness — WDC3984 — position and weather

sailwx.info

Track history (hours):
 
Tides and Currents Weather Stations Pressure Air Temp Water Temp Dewpoint Dewpoint Depression Visibility Wind Speed Wind Dir Waves Ship Positions

Piper Inness

Owner: Foss Maritime Co, Seattle, WA. More information available from US FCC via Universal Licensing System and Coast Guard Vessel Documentation Center.

Last reported at 2015-Aug-03 02:31 UTC. Time now 2015-Aug-03 02:39 UTC.
Position N 33°46' W 118°13'.

; draft 2 m.

Type: Other ship. MMSI: 367017440.

Date/timePositionNaut miles runAvg speedWind from/ knotsBaromVisibWave heightAir tempDewpointWater temp
2015-Aug-03 02:31N 33°46' W 118°13'0 0.0
2015-Aug-03 00:25N 33°46' W 118°13'0 0.0
2015-Aug-02 23:31N 33°46' W 118°13'0 0.0
2015-Aug-02 22:31N 33°46' W 118°13'0 0.0
2015-Aug-02 21:31N 33°46' W 118°13'0 0.0
2015-Aug-02 20:25N 33°46' W 118°13'0 0.0
2015-Aug-02 19:28N 33°46' W 118°13'0 0.0
2015-Aug-02 18:28N 33°46' W 118°13'3 3.2
2015-Aug-02 17:27N 33°44' W 118°10'3 3.5
2015-Aug-02 16:33N 33°46' W 118°13'1 0.5
2015-Aug-02 15:05N 33°46' W 118°13'0 0.0
2015-Aug-02 14:29N 33°46' W 118°13'0 0.0
2015-Aug-02 08:29N 33°46' W 118°13'0 0.0
2015-Aug-02 07:17N 33°46' W 118°13'0 0.0
2015-Aug-02 05:17N 33°46' W 118°13'0 0.0
2015-Aug-02 04:23N 33°46' W 118°13'0 0.0
2015-Aug-02 01:17N 33°46' W 118°13'4 2.3
2015-Aug-01 23:33N 33°44' W 118°16'3 2.4
2015-Aug-01 22:15N 33°45' W 118°13'0 0.7
2015-Aug-01 21:33N 33°45' W 118°13'3316.4
2015-Aug-01 19:32N 33°16' W 117°54'7 6.9
2015-Aug-01 18:33N 33°09' W 117°52'1 1.5
2015-Aug-01 17:33N 33°08' W 117°51'1 1.2
2015-Aug-01 16:33N 33°07' W 117°50'1 1.1
2015-Aug-01 15:33N 33°06' W 117°50'2 1.8
2015-Aug-01 14:33N 33°04' W 117°49'1 0.6
2015-Aug-01 13:33N 33°04' W 117°49'1 1.3
2015-Aug-01 12:33N 33°02' W 117°49'1 0.8
2015-Aug-01 11:33N 33°02' W 117°49'2 1.5
2015-Aug-01 10:34N 33°00' W 117°48'2 2.0
2015-Aug-01 09:33N 32°60' W 117°45'1 0.8
2015-Aug-01 08:33N 33°00' W 117°46'0 0.3
2015-Aug-01 07:33N 33°00' W 117°47'1 0.7
2015-Aug-01 06:33N 32°59' W 117°46'2 2.2
2015-Aug-01 05:33N 32°60' W 117°49'2 2.1
2015-Aug-01 04:33N 32°59' W 117°47'1 0.9
2015-Aug-01 03:33N 32°59' W 117°48'2 1.7
2015-Aug-01 02:33N 32°58' W 117°46'2 1.7
2015-Aug-01 01:34N 32°57' W 117°45'1 1.0
2015-Aug-01 00:33N 32°57' W 117°46'2 2.3
2015-Jul-31 23:34N 32°55' W 117°47'2 1.6
2015-Jul-31 22:33N 32°53' W 117°46'1 1.4
2015-Jul-31 21:33N 32°54' W 117°48'1 1.4
2015-Jul-31 20:33N 32°54' W 117°46'2 2.3
2015-Jul-31 19:33N 32°53' W 117°49'5 5.3
2015-Jul-31 18:33N 32°58' W 117°48'1 1.4
2015-Jul-31 17:33N 32°59' W 117°49'2 1.7
2015-Jul-31 16:33N 33°01' W 117°50'5 4.7
2015-Jul-31 15:33N 33°05' W 117°53'3 3.1
2015-Jul-31 14:33N 33°07' W 117°55'2 2.4
2015-Jul-31 13:33N 33°09' W 117°57'5 5.0
2015-Jul-31 12:33N 33°13' W 117°59'1716.7
2015-Jul-31 11:33N 33°30' W 118°05'1615.9
2015-Jul-31 10:33N 33°44' W 118°12'2 2.1
2015-Jul-31 09:33N 33°46' W 118°13'0 0.0
2015-Jul-31 07:14N 33°46' W 118°13'0 0.0
2015-Jul-31 06:34N 33°46' W 118°13'0 0.0
2015-Jul-31 05:33N 33°46' W 118°13'0 0.0
2015-Jul-31 04:22N 33°46' W 118°13'0 0.0
2015-Jul-31 03:33N 33°46' W 118°13'0 0.0
2015-Jul-31 02:32N 33°46' W 118°13'0 0.0
2015-Jul-31 01:23N 33°46' W 118°13'0 0.0
2015-Jul-31 00:32N 33°46' W 118°13'0 0.0
2015-Jul-30 23:31N 33°46' W 118°13'0 0.0
2015-Jul-30 22:31N 33°46' W 118°13'0 0.0
2015-Jul-30 21:31N 33°46' W 118°13'0 0.0
2015-Jul-30 20:22N 33°46' W 118°13'0 0.0
2015-Jul-30 19:11N 33°46' W 118°13'0 0.0
2015-Jul-30 18:33N 33°46' W 118°13'4 1.7
2015-Jul-30 16:25N 33°44' W 118°09'0 0.1
2015-Jul-30 15:33N 33°44' W 118°09'4 3.6
2015-Jul-30 14:33N 33°46' W 118°13'1 0.7
2015-Jul-30 13:34N 33°46' W 118°13'0 0.0
2015-Jul-30 12:31N 33°46' W 118°13'0 0.0
2015-Jul-30 11:28N 33°46' W 118°13'0 0.0
2015-Jul-30 09:28N 33°46' W 118°13'0 0.0
2015-Jul-30 08:31N 33°46' W 118°13'0 0.0
2015-Jul-30 07:25N 33°46' W 118°13'0 0.0
2015-Jul-30 06:25N 33°46' W 118°13'0 0.0
2015-Jul-30 05:31N 33°46' W 118°13'0 0.0
2015-Jul-30 04:31N 33°46' W 118°13'0 0.0
2015-Jul-30 03:31N 33°46' W 118°13'0 0.0
2015-Jul-30 02:31N 33°46' W 118°13'0 0.0
2015-Jul-30 01:25N 33°46' W 118°13'0 0.0
2015-Jul-30 00:31N 33°46' W 118°13'0 0.0
2015-Jul-29 23:31N 33°46' W 118°13'0 0.0
2015-Jul-29 22:30N 33°46' W 118°13'1 0.7
2015-Jul-29 21:33N 33°46' W 118°13'1 0.8
2015-Jul-29 20:33N 33°45' W 118°13'3215.9
2015-Jul-29 18:33N 33°16' W 117°57'8 8.1
2015-Jul-29 17:33N 33°08' W 117°54'2 2.4
2015-Jul-29 16:33N 33°07' W 117°51'1 0.5
2015-Jul-29 15:34N 33°07' W 117°51'2 2.0
2015-Jul-29 14:33N 33°05' W 117°51'0 0.5
2015-Jul-29 13:33N 33°04' W 117°51'2 2.5
2015-Jul-29 12:33N 33°02' W 117°50'1 1.3
2015-Jul-29 11:33N 33°01' W 117°49'1 0.8
2015-Jul-29 10:33N 33°01' W 117°49'1 1.0
2015-Jul-29 09:33N 32°60' W 117°49'1 1.1
2015-Jul-29 08:32N 32°59' W 117°48'2 1.6
2015-Jul-29 07:33N 32°58' W 117°47'3 2.6
2015-Jul-29 06:34N 32°57' W 117°44'1 0.7
2015-Jul-29 05:33N 32°58' W 117°44'1 0.6
2015-Jul-29 04:33N 32°58' W 117°45'1 0.9
2015-Jul-29 03:34N 32°58' W 117°46'2 1.6
2015-Jul-29 02:33N 32°57' W 117°44'1 0.7
2015-Jul-29 01:33N 32°57' W 117°45'1 1.0
2015-Jul-29 00:33N 32°57' W 117°46'1 1.0
2015-Jul-28 23:33N 32°57' W 117°47'1 0.8
2015-Jul-28 22:33N 32°58' W 117°47'1 1.1
2015-Jul-28 21:33N 32°58' W 117°48'4 4.3
2015-Jul-28 20:33N 33°02' W 117°50'5 4.8
2015-Jul-28 19:33N 33°06' W 117°53'1 0.7
2015-Jul-28 18:33N 33°07' W 117°52'2 1.3
2015-Jul-28 17:17N 33°05' W 117°52'1 1.4
2015-Jul-28 16:29N 33°04' W 117°51'0 0.5
2015-Jul-28 15:31N 33°04' W 117°51'1 0.5
2015-Jul-28 14:18N 33°04' W 117°52'0 0.5
2015-Jul-28 13:33N 33°03' W 117°52'2 1.5
2015-Jul-28 12:12N 33°01' W 117°51'3 3.8
2015-Jul-28 11:26N 32°59' W 117°49'2 2.7
2015-Jul-28 10:33N 32°57' W 117°47'1 1.0
2015-Jul-28 09:33N 32°57' W 117°46'1 1.2
2015-Jul-28 08:33N 32°56' W 117°45'3 2.5
2015-Jul-28 07:33N 32°55' W 117°42'0 0.4
2015-Jul-28 06:33N 32°55' W 117°43'0 0.5
2015-Jul-28 05:33N 32°56' W 117°43'2 1.6
2015-Jul-28 04:33N 32°57' W 117°45'1 0.7
2015-Jul-28 03:33N 32°56' W 117°45'1 1.0
2015-Jul-28 02:33N 32°56' W 117°47'1 1.0
2015-Jul-28 01:33N 32°57' W 117°47'1 0.9
2015-Jul-28 00:33N 32°57' W 117°48'1 0.6
2015-Jul-27 23:33N 32°58' W 117°48'1 1.1
2015-Jul-27 22:33N 32°58' W 117°49'0 0.3
2015-Jul-27 21:33N 32°58' W 117°50'4 4.0
2015-Jul-27 20:33N 33°02' W 117°52'4 3.7
2015-Jul-27 19:33N 33°05' W 117°53'5 4.7
2015-Jul-27 18:32N 33°10' W 117°56'2 2.5
2015-Jul-27 17:33N 33°12' W 117°55'1 0.8
2015-Jul-27 16:33N 33°11' W 117°55'6 6.3
2015-Jul-27 15:33N 33°16' W 117°60'3115.6
2015-Jul-27 13:33N 33°45' W 118°13'1 1.3
2015-Jul-27 12:33N 33°46' W 118°13'0 0.0
2015-Jul-27 11:23N 33°46' W 118°13'0 0.0
2015-Jul-27 10:26N 33°46' W 118°13'0 0.0
2015-Jul-27 09:23N 33°46' W 118°13'0 0.0
2015-Jul-27 08:32N 33°46' W 118°13'0 0.0
2015-Jul-27 07:32N 33°46' W 118°13'0 0.0
2015-Jul-27 06:32N 33°46' W 118°13'0 0.0
2015-Jul-27 05:11N 33°46' W 118°13'0 0.0
2015-Jul-27 04:17N 33°46' W 118°13'0 0.0
2015-Jul-27 03:08N 33°46' W 118°13'0 0.0
2015-Jul-27 00:29N 33°46' W 118°13'0 0.0
2015-Jul-26 23:29N 33°46' W 118°13'0 0.0
2015-Jul-26 22:32N 33°46' W 118°13'0 0.0
2015-Jul-26 21:32N 33°46' W 118°13'0 0.0
2015-Jul-26 20:29N 33°46' W 118°13'0 0.0
2015-Jul-26 19:29N 33°46' W 118°13'0 0.0
2015-Jul-26 18:29N 33°46' W 118°13'0 0.0
2015-Jul-26 17:32N 33°46' W 118°13'0 0.0
2015-Jul-26 16:29N 33°46' W 118°13'0 0.0
2015-Jul-26 15:29N 33°46' W 118°13'0 0.0
2015-Jul-26 14:26N 33°46' W 118°13'0 0.0
2015-Jul-26 12:20N 33°46' W 118°13'0 0.0
2015-Jul-26 11:29N 33°46' W 118°13'0 0.0
2015-Jul-26 09:29N 33°46' W 118°13'0 0.0
2015-Jul-26 08:32N 33°46' W 118°13'0 0.0
2015-Jul-26 07:32N 33°46' W 118°13'0 0.0
2015-Jul-26 06:29N 33°46' W 118°13'0 0.0
2015-Jul-26 05:32N 33°46' W 118°13'0 0.0
2015-Jul-26 03:20N 33°46' W 118°13'0 0.0
2015-Jul-26 02:32N 33°46' W 118°13'0 0.0
2015-Jul-26 01:32N 33°46' W 118°13'0 0.0
2015-Jul-26 00:29N 33°46' W 118°13'0 0.0
2015-Jul-25 23:32N 33°46' W 118°13'0 0.0
2015-Jul-25 22:32N 33°46' W 118°13'0 0.0
2015-Jul-25 21:32N 33°46' W 118°13'0 0.0
2015-Jul-25 20:32N 33°46' W 118°13'0 0.0
2015-Jul-25 19:32N 33°46' W 118°13'0 0.0
2015-Jul-25 18:32N 33°46' W 118°13'0 0.0
2015-Jul-25 17:32N 33°46' W 118°13'0 0.0
2015-Jul-25 16:32N 33°46' W 118°13'0 0.0
2015-Jul-25 15:32N 33°46' W 118°13'0 0.0
2015-Jul-25 14:29N 33°46' W 118°13'0 0.0
2015-Jul-25 13:23N 33°46' W 118°13'0 0.0
2015-Jul-25 12:32N 33°46' W 118°13'0 0.0
2015-Jul-25 11:17N 33°46' W 118°13'0 0.0
2015-Jul-25 10:32N 33°46' W 118°13'0 0.0
2015-Jul-25 09:29N 33°46' W 118°13'0 0.0
2015-Jul-25 08:32N 33°46' W 118°13'0 0.0
2015-Jul-25 07:32N 33°46' W 118°13'0 0.0
2015-Jul-25 06:32N 33°46' W 118°13'0 0.0
2015-Jul-25 05:29N 33°46' W 118°13'0 0.0
2015-Jul-25 04:29N 33°46' W 118°13'0 0.0
2015-Jul-25 03:17N 33°46' W 118°13'0 0.0
2015-Jul-25 02:23N 33°46' W 118°13'0 0.0
2015-Jul-25 01:29N 33°46' W 118°13'0 0.0
2015-Jul-25 00:29N 33°46' W 118°13'0 0.0
2015-Jul-24 23:32N 33°46' W 118°13'0 0.0
2015-Jul-24 22:32N 33°46' W 118°13'0 0.0
2015-Jul-24 21:32N 33°46' W 118°13'0 0.0
2015-Jul-24 20:23N 33°46' W 118°13'0 0.0
2015-Jul-24 19:32N 33°46' W 118°13'0 0.0
2015-Jul-24 18:32N 33°46' W 118°13'0 0.0
2015-Jul-24 17:32N 33°46' W 118°13'0 0.0
2015-Jul-24 16:32N 33°46' W 118°13'0 0.0
2015-Jul-24 15:32N 33°46' W 118°13'0 0.0
2015-Jul-24 14:32N 33°46' W 118°13'0 0.0
2015-Jul-24 13:32N 33°46' W 118°13'0 0.0
2015-Jul-24 12:23N 33°46' W 118°13'0 0.0
2015-Jul-24 11:26N 33°46' W 118°13'0 0.0
2015-Jul-24 10:32N 33°46' W 118°13'0 0.0
2015-Jul-24 09:29N 33°46' W 118°13'0 0.0
2015-Jul-24 07:17N 33°46' W 118°13'0 0.0
2015-Jul-24 06:32N 33°46' W 118°13'0 0.0
2015-Jul-24 05:29N 33°46' W 118°13'0 0.0
2015-Jul-24 04:32N 33°46' W 118°13'0 0.0
2015-Jul-24 03:32N 33°46' W 118°13'0 0.0
2015-Jul-24 02:32N 33°46' W 118°13'  
Track history (hours):
 
Tides and Currents Weather Stations Pressure Air Temp Water Temp Dewpoint Dewpoint Depression Visibility Wind Speed Wind Dir Waves Ship Positions

Piper Inness

Owner: Foss Maritime Co, Seattle, WA. More information available from US FCC via Universal Licensing System and Coast Guard Vessel Documentation Center.

Last reported at 2015-Aug-03 02:31 UTC. Time now 2015-Aug-03 02:39 UTC.
Position N 33°46' W 118°13'.

; draft 2 m.

Type: Other ship. MMSI: 367017440.

Date/timePositionNaut miles runAvg speedWind from/ knotsBaromVisibWave heightAir tempDewpointWater temp
2015-Aug-03 02:31N 33°46' W 118°13'0 0.0
2015-Aug-03 00:25N 33°46' W 118°13'0 0.0
2015-Aug-02 23:31N 33°46' W 118°13'0 0.0
2015-Aug-02 22:31N 33°46' W 118°13'0 0.0
2015-Aug-02 21:31N 33°46' W 118°13'0 0.0
2015-Aug-02 20:25N 33°46' W 118°13'0 0.0
2015-Aug-02 19:28N 33°46' W 118°13'0 0.0
2015-Aug-02 18:28N 33°46' W 118°13'3 3.2
2015-Aug-02 17:27N 33°44' W 118°10'3 3.5
2015-Aug-02 16:33N 33°46' W 118°13'1 0.5
2015-Aug-02 15:05N 33°46' W 118°13'0 0.0
2015-Aug-02 14:29N 33°46' W 118°13'0 0.0
2015-Aug-02 08:29N 33°46' W 118°13'0 0.0
2015-Aug-02 07:17N 33°46' W 118°13'0 0.0
2015-Aug-02 05:17N 33°46' W 118°13'0 0.0
2015-Aug-02 04:23N 33°46' W 118°13'0 0.0
2015-Aug-02 01:17N 33°46' W 118°13'4 2.3
2015-Aug-01 23:33N 33°44' W 118°16'3 2.4
2015-Aug-01 22:15N 33°45' W 118°13'0 0.7
2015-Aug-01 21:33N 33°45' W 118°13'3316.4
2015-Aug-01 19:32N 33°16' W 117°54'7 6.9
2015-Aug-01 18:33N 33°09' W 117°52'1 1.5
2015-Aug-01 17:33N 33°08' W 117°51'1 1.2
2015-Aug-01 16:33N 33°07' W 117°50'1 1.1
2015-Aug-01 15:33N 33°06' W 117°50'2 1.8
2015-Aug-01 14:33N 33°04' W 117°49'1 0.6
2015-Aug-01 13:33N 33°04' W 117°49'1 1.3
2015-Aug-01 12:33N 33°02' W 117°49'1 0.8
2015-Aug-01 11:33N 33°02' W 117°49'2 1.5
2015-Aug-01 10:34N 33°00' W 117°48'2 2.0
2015-Aug-01 09:33N 32°60' W 117°45'1 0.8
2015-Aug-01 08:33N 33°00' W 117°46'0 0.3
2015-Aug-01 07:33N 33°00' W 117°47'1 0.7
2015-Aug-01 06:33N 32°59' W 117°46'2 2.2
2015-Aug-01 05:33N 32°60' W 117°49'2 2.1
2015-Aug-01 04:33N 32°59' W 117°47'1 0.9
2015-Aug-01 03:33N 32°59' W 117°48'2 1.7
2015-Aug-01 02:33N 32°58' W 117°46'2 1.7
2015-Aug-01 01:34N 32°57' W 117°45'1 1.0
2015-Aug-01 00:33N 32°57' W 117°46'2 2.3
2015-Jul-31 23:34N 32°55' W 117°47'2 1.6
2015-Jul-31 22:33N 32°53' W 117°46'1 1.4
2015-Jul-31 21:33N 32°54' W 117°48'1 1.4
2015-Jul-31 20:33N 32°54' W 117°46'2 2.3
2015-Jul-31 19:33N 32°53' W 117°49'5 5.3
2015-Jul-31 18:33N 32°58' W 117°48'1 1.4
2015-Jul-31 17:33N 32°59' W 117°49'2 1.7
2015-Jul-31 16:33N 33°01' W 117°50'5 4.7
2015-Jul-31 15:33N 33°05' W 117°53'3 3.1
2015-Jul-31 14:33N 33°07' W 117°55'2 2.4
2015-Jul-31 13:33N 33°09' W 117°57'5 5.0
2015-Jul-31 12:33N 33°13' W 117°59'1716.7
2015-Jul-31 11:33N 33°30' W 118°05'1615.9
2015-Jul-31 10:33N 33°44' W 118°12'2 2.1
2015-Jul-31 09:33N 33°46' W 118°13'0 0.0
2015-Jul-31 07:14N 33°46' W 118°13'0 0.0
2015-Jul-31 06:34N 33°46' W 118°13'0 0.0
2015-Jul-31 05:33N 33°46' W 118°13'0 0.0
2015-Jul-31 04:22N 33°46' W 118°13'0 0.0
2015-Jul-31 03:33N 33°46' W 118°13'0 0.0
2015-Jul-31 02:32N 33°46' W 118°13'0 0.0
2015-Jul-31 01:23N 33°46' W 118°13'0 0.0
2015-Jul-31 00:32N 33°46' W 118°13'0 0.0
2015-Jul-30 23:31N 33°46' W 118°13'0 0.0
2015-Jul-30 22:31N 33°46' W 118°13'0 0.0
2015-Jul-30 21:31N 33°46' W 118°13'0 0.0
2015-Jul-30 20:22N 33°46' W 118°13'0 0.0
2015-Jul-30 19:11N 33°46' W 118°13'0 0.0
2015-Jul-30 18:33N 33°46' W 118°13'4 1.7
2015-Jul-30 16:25N 33°44' W 118°09'0 0.1
2015-Jul-30 15:33N 33°44' W 118°09'4 3.6
2015-Jul-30 14:33N 33°46' W 118°13'1 0.7
2015-Jul-30 13:34N 33°46' W 118°13'0 0.0
2015-Jul-30 12:31N 33°46' W 118°13'0 0.0
2015-Jul-30 11:28N 33°46' W 118°13'0 0.0
2015-Jul-30 09:28N 33°46' W 118°13'0 0.0
2015-Jul-30 08:31N 33°46' W 118°13'0 0.0
2015-Jul-30 07:25N 33°46' W 118°13'0 0.0
2015-Jul-30 06:25N 33°46' W 118°13'0 0.0
2015-Jul-30 05:31N 33°46' W 118°13'0 0.0
2015-Jul-30 04:31N 33°46' W 118°13'0 0.0
2015-Jul-30 03:31N 33°46' W 118°13'0 0.0
2015-Jul-30 02:31N 33°46' W 118°13'0 0.0
2015-Jul-30 01:25N 33°46' W 118°13'0 0.0
2015-Jul-30 00:31N 33°46' W 118°13'0 0.0
2015-Jul-29 23:31N 33°46' W 118°13'0 0.0
2015-Jul-29 22:30N 33°46' W 118°13'1 0.7
2015-Jul-29 21:33N 33°46' W 118°13'1 0.8
2015-Jul-29 20:33N 33°45' W 118°13'3215.9
2015-Jul-29 18:33N 33°16' W 117°57'8 8.1
2015-Jul-29 17:33N 33°08' W 117°54'2 2.4
2015-Jul-29 16:33N 33°07' W 117°51'1 0.5
2015-Jul-29 15:34N 33°07' W 117°51'2 2.0
2015-Jul-29 14:33N 33°05' W 117°51'0 0.5
2015-Jul-29 13:33N 33°04' W 117°51'2 2.5
2015-Jul-29 12:33N 33°02' W 117°50'1 1.3
2015-Jul-29 11:33N 33°01' W 117°49'1 0.8
2015-Jul-29 10:33N 33°01' W 117°49'1 1.0
2015-Jul-29 09:33N 32°60' W 117°49'1 1.1
2015-Jul-29 08:32N 32°59' W 117°48'2 1.6
2015-Jul-29 07:33N 32°58' W 117°47'3 2.6
2015-Jul-29 06:34N 32°57' W 117°44'1 0.7
2015-Jul-29 05:33N 32°58' W 117°44'1 0.6
2015-Jul-29 04:33N 32°58' W 117°45'1 0.9
2015-Jul-29 03:34N 32°58' W 117°46'2 1.6
2015-Jul-29 02:33N 32°57' W 117°44'1 0.7
2015-Jul-29 01:33N 32°57' W 117°45'1 1.0
2015-Jul-29 00:33N 32°57' W 117°46'1 1.0
2015-Jul-28 23:33N 32°57' W 117°47'1 0.8
2015-Jul-28 22:33N 32°58' W 117°47'1 1.1
2015-Jul-28 21:33N 32°58' W 117°48'4 4.3
2015-Jul-28 20:33N 33°02' W 117°50'5 4.8
2015-Jul-28 19:33N 33°06' W 117°53'1 0.7
2015-Jul-28 18:33N 33°07' W 117°52'2 1.3
2015-Jul-28 17:17N 33°05' W 117°52'1 1.4
2015-Jul-28 16:29N 33°04' W 117°51'0 0.5
2015-Jul-28 15:31N 33°04' W 117°51'1 0.5
2015-Jul-28 14:18N 33°04' W 117°52'0 0.5
2015-Jul-28 13:33N 33°03' W 117°52'2 1.5
2015-Jul-28 12:12N 33°01' W 117°51'3 3.8
2015-Jul-28 11:26N 32°59' W 117°49'2 2.7
2015-Jul-28 10:33N 32°57' W 117°47'1 1.0
2015-Jul-28 09:33N 32°57' W 117°46'1 1.2
2015-Jul-28 08:33N 32°56' W 117°45'3 2.5
2015-Jul-28 07:33N 32°55' W 117°42'0 0.4
2015-Jul-28 06:33N 32°55' W 117°43'0 0.5
2015-Jul-28 05:33N 32°56' W 117°43'2 1.6
2015-Jul-28 04:33N 32°57' W 117°45'1 0.7
2015-Jul-28 03:33N 32°56' W 117°45'1 1.0
2015-Jul-28 02:33N 32°56' W 117°47'1 1.0
2015-Jul-28 01:33N 32°57' W 117°47'1 0.9
2015-Jul-28 00:33N 32°57' W 117°48'1 0.6
2015-Jul-27 23:33N 32°58' W 117°48'1 1.1
2015-Jul-27 22:33N 32°58' W 117°49'0 0.3
2015-Jul-27 21:33N 32°58' W 117°50'4 4.0
2015-Jul-27 20:33N 33°02' W 117°52'4 3.7
2015-Jul-27 19:33N 33°05' W 117°53'5 4.7
2015-Jul-27 18:32N 33°10' W 117°56'2 2.5
2015-Jul-27 17:33N 33°12' W 117°55'1 0.8
2015-Jul-27 16:33N 33°11' W 117°55'6 6.3
2015-Jul-27 15:33N 33°16' W 117°60'3115.6
2015-Jul-27 13:33N 33°45' W 118°13'1 1.3
2015-Jul-27 12:33N 33°46' W 118°13'0 0.0
2015-Jul-27 11:23N 33°46' W 118°13'0 0.0
2015-Jul-27 10:26N 33°46' W 118°13'0 0.0
2015-Jul-27 09:23N 33°46' W 118°13'0 0.0
2015-Jul-27 08:32N 33°46' W 118°13'0 0.0
2015-Jul-27 07:32N 33°46' W 118°13'0 0.0
2015-Jul-27 06:32N 33°46' W 118°13'0 0.0
2015-Jul-27 05:11N 33°46' W 118°13'0 0.0
2015-Jul-27 04:17N 33°46' W 118°13'0 0.0
2015-Jul-27 03:08N 33°46' W 118°13'0 0.0
2015-Jul-27 00:29N 33°46' W 118°13'0 0.0
2015-Jul-26 23:29N 33°46' W 118°13'0 0.0
2015-Jul-26 22:32N 33°46' W 118°13'0 0.0
2015-Jul-26 21:32N 33°46' W 118°13'0 0.0
2015-Jul-26 20:29N 33°46' W 118°13'0 0.0
2015-Jul-26 19:29N 33°46' W 118°13'0 0.0
2015-Jul-26 18:29N 33°46' W 118°13'0 0.0
2015-Jul-26 17:32N 33°46' W 118°13'0 0.0
2015-Jul-26 16:29N 33°46' W 118°13'0 0.0
2015-Jul-26 15:29N 33°46' W 118°13'0 0.0
2015-Jul-26 14:26N 33°46' W 118°13'0 0.0
2015-Jul-26 12:20N 33°46' W 118°13'0 0.0
2015-Jul-26 11:29N 33°46' W 118°13'0 0.0
2015-Jul-26 09:29N 33°46' W 118°13'0 0.0
2015-Jul-26 08:32N 33°46' W 118°13'0 0.0
2015-Jul-26 07:32N 33°46' W 118°13'0 0.0
2015-Jul-26 06:29N 33°46' W 118°13'0 0.0
2015-Jul-26 05:32N 33°46' W 118°13'0 0.0
2015-Jul-26 03:20N 33°46' W 118°13'0 0.0
2015-Jul-26 02:32N 33°46' W 118°13'0 0.0
2015-Jul-26 01:32N 33°46' W 118°13'0 0.0
2015-Jul-26 00:29N 33°46' W 118°13'0 0.0
2015-Jul-25 23:32N 33°46' W 118°13'0 0.0
2015-Jul-25 22:32N 33°46' W 118°13'0 0.0
2015-Jul-25 21:32N 33°46' W 118°13'0 0.0
2015-Jul-25 20:32N 33°46' W 118°13'0 0.0
2015-Jul-25 19:32N 33°46' W 118°13'0 0.0
2015-Jul-25 18:32N 33°46' W 118°13'0 0.0
2015-Jul-25 17:32N 33°46' W 118°13'0 0.0
2015-Jul-25 16:32N 33°46' W 118°13'0 0.0
2015-Jul-25 15:32N 33°46' W 118°13'0 0.0
2015-Jul-25 14:29N 33°46' W 118°13'0 0.0
2015-Jul-25 13:23N 33°46' W 118°13'0 0.0
2015-Jul-25 12:32N 33°46' W 118°13'0 0.0
2015-Jul-25 11:17N 33°46' W 118°13'0 0.0
2015-Jul-25 10:32N 33°46' W 118°13'0 0.0
2015-Jul-25 09:29N 33°46' W 118°13'0 0.0
2015-Jul-25 08:32N 33°46' W 118°13'0 0.0
2015-Jul-25 07:32N 33°46' W 118°13'0 0.0
2015-Jul-25 06:32N 33°46' W 118°13'0 0.0
2015-Jul-25 05:29N 33°46' W 118°13'0 0.0
2015-Jul-25 04:29N 33°46' W 118°13'0 0.0
2015-Jul-25 03:17N 33°46' W 118°13'0 0.0
2015-Jul-25 02:23N 33°46' W 118°13'0 0.0
2015-Jul-25 01:29N 33°46' W 118°13'0 0.0
2015-Jul-25 00:29N 33°46' W 118°13'0 0.0
2015-Jul-24 23:32N 33°46' W 118°13'0 0.0
2015-Jul-24 22:32N 33°46' W 118°13'0 0.0
2015-Jul-24 21:32N 33°46' W 118°13'0 0.0
2015-Jul-24 20:23N 33°46' W 118°13'0 0.0
2015-Jul-24 19:32N 33°46' W 118°13'0 0.0
2015-Jul-24 18:32N 33°46' W 118°13'0 0.0
2015-Jul-24 17:32N 33°46' W 118°13'0 0.0
2015-Jul-24 16:32N 33°46' W 118°13'0 0.0
2015-Jul-24 15:32N 33°46' W 118°13'0 0.0
2015-Jul-24 14:32N 33°46' W 118°13'0 0.0
2015-Jul-24 13:32N 33°46' W 118°13'0 0.0
2015-Jul-24 12:23N 33°46' W 118°13'0 0.0
2015-Jul-24 11:26N 33°46' W 118°13'0 0.0
2015-Jul-24 10:32N 33°46' W 118°13'0 0.0
2015-Jul-24 09:29N 33°46' W 118°13'0 0.0
2015-Jul-24 07:17N 33°46' W 118°13'0 0.0
2015-Jul-24 06:32N 33°46' W 118°13'0 0.0
2015-Jul-24 05:29N 33°46' W 118°13'0 0.0
2015-Jul-24 04:32N 33°46' W 118°13'0 0.0
2015-Jul-24 03:32N 33°46' W 118°13'0 0.0
2015-Jul-24 02:32N 33°46' W 118°13'  

Dump ship's entire track history